sensor_id;sensor_type;location;lat;lon;timestamp;pressure;altitude;pressure_sealevel;temperature;humidity
29417;BME280;28421;51.030;4.006;2023-03-13T00:00:45;100228.91;;;10.45;96.22
29417;BME280;28421;51.030;4.006;2023-03-13T00:03:11;100261.88;;;10.68;96.45
29417;BME280;28421;51.030;4.006;2023-03-13T00:05:36;100197.28;;;10.32;95.88
29417;BME280;28421;51.030;4.006;2023-03-13T00:08:02;100229.69;;;10.60;96.39
29417;BME280;28421;51.030;4.006;2023-03-13T00:10:27;100215.44;;;10.60;96.24
29417;BME280;28421;51.030;4.006;2023-03-13T00:12:53;100187.47;;;10.39;96.43
29417;BME280;28421;51.030;4.006;2023-03-13T00:15:18;100164.50;;;10.37;96.29
29417;BME280;28421;51.030;4.006;2023-03-13T00:17:43;100174.13;;;10.46;96.32
29417;BME280;28421;51.030;4.006;2023-03-13T00:20:09;100223.91;;;10.78;96.17
29417;BME280;28421;51.030;4.006;2023-03-13T00:22:35;100198.72;;;10.64;96.34
29417;BME280;28421;51.030;4.006;2023-03-13T00:25:00;100199.41;;;10.66;96.71
29417;BME280;28421;51.030;4.006;2023-03-13T00:27:26;100187.06;;;10.57;96.77
29417;BME280;28421;51.030;4.006;2023-03-13T00:29:51;100195.75;;;10.74;96.93
29417;BME280;28421;51.030;4.006;2023-03-13T00:32:16;100180.56;;;10.66;97.25
29417;BME280;28421;51.030;4.006;2023-03-13T05:34:23;99837.53;;;12.74;82.58
29417;BME280;28421;51.030;4.006;2023-03-13T05:37:15;99849.97;;;12.75;82.75
29417;BME280;28421;51.030;4.006;2023-03-13T05:39:43;99860.53;;;12.83;82.68
29417;BME280;28421;51.030;4.006;2023-03-13T05:42:23;99860.13;;;12.86;82.59
29417;BME280;28421;51.030;4.006;2023-03-13T05:45:20;99864.66;;;12.99;81.98
29417;BME280;28421;51.030;4.006;2023-03-13T05:48:05;99855.31;;;12.95;81.47
29417;BME280;28421;51.030;4.006;2023-03-13T05:50:49;99849.06;;;13.01;81.31
29417;BME280;28421;51.030;4.006;2023-03-13T05:53:27;99843.91;;;12.93;81.71
29417;BME280;28421;51.030;4.006;2023-03-13T05:56:16;99854.91;;;12.91;81.96
29417;BME280;28421;51.030;4.006;2023-03-13T05:59:00;99841.41;;;12.91;81.30
29417;BME280;28421;51.030;4.006;2023-03-13T06:01:34;99859.03;;;13.07;81.34
29417;BME280;28421;51.030;4.006;2023-03-13T06:04:18;99810.09;;;12.84;81.31
29417;BME280;28421;51.030;4.006;2023-03-13T06:06:45;99865.69;;;12.98;81.85
29417;BME280;28421;51.030;4.006;2023-03-13T06:09:11;99810.56;;;12.74;81.54
29417;BME280;28421;51.030;4.006;2023-03-13T06:11:36;99861.53;;;13.02;81.60
29417;BME280;28421;51.030;4.006;2023-03-13T06:14:03;99824.22;;;12.73;81.85
29417;BME280;28421;51.030;4.006;2023-03-13T06:16:47;99808.50;;;12.69;81.52
29417;BME280;28421;51.030;4.006;2023-03-13T06:19:19;99824.41;;;12.84;81.12
29417;BME280;28421;51.030;4.006;2023-03-13T06:21:45;99821.91;;;12.89;80.98
29417;BME280;28421;51.030;4.006;2023-03-13T06:24:10;99839.13;;;12.95;81.16
29417;BME280;28421;51.030;4.006;2023-03-13T06:26:36;99839.97;;;12.89;81.30
29417;BME280;28421;51.030;4.006;2023-03-13T06:29:01;99868.53;;;13.10;81.20
29417;BME280;28421;51.030;4.006;2023-03-13T06:31:27;99860.31;;;12.98;81.37
29417;BME280;28421;51.030;4.006;2023-03-13T06:33:55;99831.28;;;12.80;81.28
29417;BME280;28421;51.030;4.006;2023-03-13T06:36:22;99880.38;;;13.09;81.29
29417;BME280;28421;51.030;4.006;2023-03-13T06:38:48;99830.84;;;12.90;80.94
29417;BME280;28421;51.030;4.006;2023-03-13T06:41:14;99829.41;;;12.81;81.26
29417;BME280;28421;51.030;4.006;2023-03-13T06:43:39;99857.78;;;13.03;80.78
29417;BME280;28421;51.030;4.006;2023-03-13T06:46:06;99852.59;;;13.02;80.84
29417;BME280;28421;51.030;4.006;2023-03-13T06:48:32;99842.41;;;13.04;80.59
29417;BME280;28421;51.030;4.006;2023-03-13T06:50:57;99797.66;;;12.76;80.30
29417;BME280;28421;51.030;4.006;2023-03-13T06:53:23;99840.38;;;12.99;80.08
29417;BME280;28421;51.030;4.006;2023-03-13T06:55:48;99843.66;;;13.01;79.48
29417;BME280;28421;51.030;4.006;2023-03-13T06:58:14;99831.84;;;13.02;79.65
29417;BME280;28421;51.030;4.006;2023-03-13T07:00:40;99841.38;;;13.11;79.43
29417;BME280;28421;51.030;4.006;2023-03-13T07:03:07;99827.28;;;12.96;79.20
29417;BME280;28421;51.030;4.006;2023-03-13T07:05:33;99827.03;;;13.11;78.16
29417;BME280;28421;51.030;4.006;2023-03-13T07:07:58;99810.28;;;12.89;78.61
29417;BME280;28421;51.030;4.006;2023-03-13T07:10:23;99835.09;;;13.17;78.20
29417;BME280;28421;51.030;4.006;2023-03-13T07:12:49;99825.75;;;13.20;77.85
29417;BME280;28421;51.030;4.006;2023-03-13T07:15:14;99787.44;;;12.98;77.79
29417;BME280;28421;51.030;4.006;2023-03-13T07:17:40;99782.06;;;12.91;78.15
29417;BME280;28421;51.030;4.006;2023-03-13T07:20:05;99837.59;;;13.26;78.68
29417;BME280;28421;51.030;4.006;2023-03-13T07:22:34;99820.84;;;13.04;78.33
29417;BME280;28421;51.030;4.006;2023-03-13T07:24:59;99798.03;;;12.93;78.65
29417;BME280;28421;51.030;4.006;2023-03-13T07:27:25;99841.56;;;13.10;79.56
29417;BME280;28421;51.030;4.006;2023-03-13T07:29:50;99833.28;;;13.05;79.76
29417;BME280;28421;51.030;4.006;2023-03-13T07:32:16;99880.59;;;13.27;79.66
29417;BME280;28421;51.030;4.006;2023-03-13T07:34:41;99797.59;;;12.96;79.46
29417;BME280;28421;51.030;4.006;2023-03-13T07:37:10;99832.03;;;13.07;79.80
29417;BME280;28421;51.030;4.006;2023-03-13T07:39:36;99843.19;;;13.17;79.87
29417;BME280;28421;51.030;4.006;2023-03-13T07:42:01;99881.81;;;13.31;80.46
29417;BME280;28421;51.030;4.006;2023-03-13T07:44:27;99876.00;;;13.21;80.76
29417;BME280;28421;51.030;4.006;2023-03-13T07:46:52;99841.41;;;12.91;82.48
29417;BME280;28421;51.030;4.006;2023-03-13T07:49:18;99853.03;;;12.99;83.34
29417;BME280;28421;51.030;4.006;2023-03-13T07:51:43;99845.13;;;12.97;83.56
29417;BME280;28421;51.030;4.006;2023-03-13T07:54:12;99812.97;;;12.89;83.74
29417;BME280;28421;51.030;4.006;2023-03-13T07:56:38;99846.53;;;13.13;83.55
29417;BME280;28421;51.030;4.006;2023-03-13T07:59:04;99834.97;;;12.99;82.95
29417;BME280;28421;51.030;4.006;2023-03-13T08:01:30;99866.66;;;13.17;83.02
29417;BME280;28421;51.030;4.006;2023-03-13T08:03:55;99877.22;;;13.18;83.47
29417;BME280;28421;51.030;4.006;2023-03-13T08:06:22;99846.56;;;13.06;82.95
29417;BME280;28421;51.030;4.006;2023-03-13T08:08:49;99891.34;;;13.21;83.21
29417;BME280;28421;51.030;4.006;2023-03-13T08:11:18;99845.72;;;13.06;84.02
29417;BME280;28421;51.030;4.006;2023-03-13T08:13:44;99851.34;;;13.11;84.16
29417;BME280;28421;51.030;4.006;2023-03-13T08:16:15;99865.19;;;13.21;84.29
29417;BME280;28421;51.030;4.006;2023-03-13T08:18:46;99826.69;;;12.94;84.12
29417;BME280;28421;51.030;4.006;2023-03-13T08:21:14;99830.75;;;13.16;83.55
29417;BME280;28421;51.030;4.006;2023-03-13T08:23:40;99867.38;;;13.51;83.18
29417;BME280;28421;51.030;4.006;2023-03-13T08:26:08;99858.91;;;13.40;82.44
29417;BME280;28421;51.030;4.006;2023-03-13T08:28:34;99823.66;;;13.22;82.00
29417;BME280;28421;51.030;4.006;2023-03-13T08:31:12;99816.63;;;13.28;81.31
29417;BME280;28421;51.030;4.006;2023-03-13T08:33:38;99797.06;;;13.32;81.02
29417;BME280;28421;51.030;4.006;2023-03-13T08:36:19;99788.91;;;13.39;80.48
29417;BME280;28421;51.030;4.006;2023-03-13T08:38:46;99756.53;;;13.39;80.18
29417;BME280;28421;51.030;4.006;2023-03-13T08:41:14;99818.72;;;13.89;79.88
29417;BME280;28421;51.030;4.006;2023-03-13T08:43:40;99814.72;;;13.98;79.77
29417;BME280;28421;51.030;4.006;2023-03-13T08:46:05;99769.66;;;13.92;79.00
29417;BME280;28421;51.030;4.006;2023-03-13T08:48:31;99777.44;;;14.07;78.29
29417;BME280;28421;51.030;4.006;2023-03-13T08:51:04;99829.47;;;14.52;77.66
29417;BME280;28421;51.030;4.006;2023-03-13T08:53:31;99816.59;;;14.48;76.85
29417;BME280;28421;51.030;4.006;2023-03-13T08:55:57;99778.69;;;14.29;76.65
29417;BME280;28421;51.030;4.006;2023-03-13T08:58:22;99768.88;;;14.35;76.40
29417;BME280;28421;51.030;4.006;2023-03-13T09:00:48;99801.19;;;14.48;76.70
29417;BME280;28421;51.030;4.006;2023-03-13T09:03:13;99793.50;;;14.52;76.47
29417;BME280;28421;51.030;4.006;2023-03-13T09:05:39;99747.28;;;14.53;76.03
29417;BME280;28421;51.030;4.006;2023-03-13T09:08:05;99755.25;;;14.85;75.28
29417;BME280;28421;51.030;4.006;2023-03-13T09:10:34;99748.47;;;14.76;74.39
29417;BME280;28421;51.030;4.006;2023-03-13T09:13:00;99756.91;;;14.86;74.44
29417;BME280;28421;51.030;4.006;2023-03-13T09:15:26;99776.72;;;14.80;74.62
29417;BME280;28421;51.030;4.006;2023-03-13T09:17:53;99743.00;;;14.82;74.76
29417;BME280;28421;51.030;4.006;2023-03-13T09:20:19;99786.31;;;15.12;73.76
29417;BME280;28421;51.030;4.006;2023-03-13T09:22:44;99753.84;;;15.12;74.04
29417;BME280;28421;51.030;4.006;2023-03-13T09:25:11;99742.75;;;15.02;73.20
29417;BME280;28421;51.030;4.006;2023-03-13T09:27:37;99734.75;;;15.07;73.52
29417;BME280;28421;51.030;4.006;2023-03-13T09:30:04;99698.56;;;14.72;73.20
29417;BME280;28421;51.030;4.006;2023-03-13T09:32:29;99743.69;;;15.08;73.41
29417;BME280;28421;51.030;4.006;2023-03-13T09:34:55;99741.44;;;15.05;73.00
29417;BME280;28421;51.030;4.006;2023-03-13T09:37:20;99719.31;;;15.26;71.79
29417;BME280;28421;51.030;4.006;2023-03-13T09:39:47;99727.59;;;15.55;70.87
29417;BME280;28421;51.030;4.006;2023-03-13T09:45:05;99741.75;;;15.57;70.89
29417;BME280;28421;51.030;4.006;2023-03-13T09:47:43;99766.16;;;15.57;71.32
29417;BME280;28421;51.030;4.006;2023-03-13T09:50:14;99763.38;;;15.45;72.61
29417;BME280;28421;51.030;4.006;2023-03-13T09:52:42;99759.53;;;15.53;73.04
29417;BME280;28421;51.030;4.006;2023-03-13T09:55:25;99769.13;;;15.67;72.29
29417;BME280;28421;51.030;4.006;2023-03-13T09:57:54;99757.16;;;15.86;71.51
29417;BME280;28421;51.030;4.006;2023-03-13T10:00:47;99699.16;;;15.87;70.31
29417;BME280;28421;51.030;4.006;2023-03-13T10:03:16;99704.25;;;16.19;69.45
29417;BME280;28421;51.030;4.006;2023-03-13T10:05:54;99727.81;;;16.42;68.57
29417;BME280;28421;51.030;4.006;2023-03-13T10:08:30;99694.25;;;15.84;69.28
29417;BME280;28421;51.030;4.006;2023-03-13T10:13:51;99698.75;;;15.49;69.02
29417;BME280;28421;51.030;4.006;2023-03-13T10:16:27;99694.06;;;15.56;68.87
29417;BME280;28421;51.030;4.006;2023-03-13T10:18:56;99734.28;;;15.82;68.47
29417;BME280;28421;51.030;4.006;2023-03-13T10:21:25;99732.88;;;15.80;67.63
29417;BME280;28421;51.030;4.006;2023-03-13T10:26:34;99717.81;;;16.43;65.36
29417;BME280;28421;51.030;4.006;2023-03-13T10:29:15;99692.09;;;16.33;64.12
29417;BME280;28421;51.030;4.006;2023-03-13T10:34:19;99678.31;;;15.88;63.07
29417;BME280;28421;51.030;4.006;2023-03-13T10:36:46;99666.16;;;15.67;62.27
29417;BME280;28421;51.030;4.006;2023-03-13T10:39:18;99710.38;;;16.14;63.73
29417;BME280;28421;51.030;4.006;2023-03-13T10:41:44;99663.47;;;16.02;62.74
29417;BME280;28421;51.030;4.006;2023-03-13T10:44:21;99656.50;;;15.83;62.67
29417;BME280;28421;51.030;4.006;2023-03-13T10:46:48;99658.97;;;16.31;63.33
29417;BME280;28421;51.030;4.006;2023-03-13T10:49:18;99711.09;;;16.97;62.04
29417;BME280;28421;51.030;4.006;2023-03-13T10:51:55;99665.88;;;16.91;61.68
29417;BME280;28421;51.030;4.006;2023-03-13T10:54:25;99701.00;;;17.38;59.02
29417;BME280;28421;51.030;4.006;2023-03-13T10:57:07;99665.03;;;17.19;57.94
29417;BME280;28421;51.030;4.006;2023-03-13T10:59:38;99656.91;;;17.36;57.66
29417;BME280;28421;51.030;4.006;2023-03-13T11:02:20;99640.66;;;17.07;56.94
29417;BME280;28421;51.030;4.006;2023-03-13T11:04:47;99691.19;;;17.54;57.42
29417;BME280;28421;51.030;4.006;2023-03-13T11:07:35;99650.38;;;17.03;55.57
29417;BME280;28421;51.030;4.006;2023-03-13T11:10:25;99653.28;;;16.85;56.48
29417;BME280;28421;51.030;4.006;2023-03-13T11:12:53;99658.28;;;16.76;57.29
29417;BME280;28421;51.030;4.006;2023-03-13T11:15:29;99644.19;;;16.79;57.45
29417;BME280;28421;51.030;4.006;2023-03-13T11:18:05;99676.22;;;16.65;58.12
29417;BME280;28421;51.030;4.006;2023-03-13T11:20:35;99662.50;;;16.84;58.57
29417;BME280;28421;51.030;4.006;2023-03-13T11:23:29;99683.38;;;16.83;58.83
29417;BME280;28421;51.030;4.006;2023-03-13T11:31:34;99639.81;;;16.38;58.25
29417;BME280;28421;51.030;4.006;2023-03-13T11:37:01;99678.81;;;16.60;58.59
29417;BME280;28421;51.030;4.006;2023-03-13T11:39:35;99673.66;;;16.59;57.65
29417;BME280;28421;51.030;4.006;2023-03-13T11:53:07;99650.06;;;17.17;54.32
29417;BME280;28421;51.030;4.006;2023-03-13T11:55:53;99646.13;;;17.41;53.79
29417;BME280;28421;51.030;4.006;2023-03-13T12:01:14;99610.06;;;17.46;52.03
29417;BME280;28421;51.030;4.006;2023-03-13T12:04:10;99631.38;;;17.54;53.39
29417;BME280;28421;51.030;4.006;2023-03-13T12:06:46;99610.22;;;17.05;52.91
29417;BME280;28421;51.030;4.006;2023-03-13T12:11:54;99603.91;;;16.59;53.07
29417;BME280;28421;51.030;4.006;2023-03-13T12:14:40;99565.34;;;16.17;54.10
29417;BME280;28421;51.030;4.006;2023-03-13T12:20:00;99548.69;;;16.25;55.11
29417;BME280;28421;51.030;4.006;2023-03-13T12:22:32;99615.81;;;16.58;53.59
29417;BME280;28421;51.030;4.006;2023-03-13T12:25:04;99580.50;;;16.70;54.01
29417;BME280;28421;51.030;4.006;2023-03-13T12:27:41;99560.94;;;16.97;53.36
29417;BME280;28421;51.030;4.006;2023-03-13T12:30:18;99595.00;;;17.38;52.00
29417;BME280;28421;51.030;4.006;2023-03-13T12:35:38;99536.78;;;17.00;49.54
29417;BME280;28421;51.030;4.006;2023-03-13T12:38:16;99602.09;;;17.39;50.38
29417;BME280;28421;51.030;4.006;2023-03-13T12:40:49;99530.94;;;16.92;49.91
29417;BME280;28421;51.030;4.006;2023-03-13T12:43:35;99542.72;;;16.97;50.14
29417;BME280;28421;51.030;4.006;2023-03-13T12:46:12;99537.78;;;16.94;50.49
29417;BME280;28421;51.030;4.006;2023-03-13T12:57:27;99532.59;;;17.43;50.24
29417;BME280;28421;51.030;4.006;2023-03-13T13:00:00;99560.13;;;17.69;50.46
29417;BME280;28421;51.030;4.006;2023-03-13T13:02:30;99552.13;;;17.79;49.67
29417;BME280;28421;51.030;4.006;2023-03-13T13:04:59;99519.50;;;17.40;48.56
29417;BME280;28421;51.030;4.006;2023-03-13T13:07:26;99557.47;;;17.91;49.16
29417;BME280;28421;51.030;4.006;2023-03-13T13:12:29;99506.69;;;17.57;49.37
29417;BME280;28421;51.030;4.006;2023-03-13T13:15:00;99511.19;;;17.47;49.12
29417;BME280;28421;51.030;4.006;2023-03-13T13:17:33;99539.16;;;17.64;49.53
29417;BME280;28421;51.030;4.006;2023-03-13T13:20:24;99547.78;;;17.61;48.12
29417;BME280;28421;51.030;4.006;2023-03-13T13:22:49;99525.66;;;17.91;49.47
29417;BME280;28421;51.030;4.006;2023-03-13T13:32:41;99492.53;;;17.94;47.26
29417;BME280;28421;51.030;4.006;2023-03-13T13:35:30;99481.91;;;17.93;48.93
29417;BME280;28421;51.030;4.006;2023-03-13T13:43:40;99476.88;;;17.62;48.94
29417;BME280;28421;51.030;4.006;2023-03-13T13:46:39;99476.69;;;17.69;49.70
29417;BME280;28421;51.030;4.006;2023-03-13T13:49:18;99474.69;;;17.81;50.14
29417;BME280;28421;51.030;4.006;2023-03-13T13:54:53;99459.63;;;17.74;49.20
29417;BME280;28421;51.030;4.006;2023-03-13T13:57:26;99459.69;;;17.57;50.67
29417;BME280;28421;51.030;4.006;2023-03-13T13:59:58;99449.59;;;17.35;51.42
29417;BME280;28421;51.030;4.006;2023-03-13T14:02:35;99437.16;;;17.39;52.26
29417;BME280;28421;51.030;4.006;2023-03-13T14:05:13;99416.41;;;17.33;52.69
29417;BME280;28421;51.030;4.006;2023-03-13T14:07:46;99449.97;;;17.83;51.63
29417;BME280;28421;51.030;4.006;2023-03-13T14:10:17;99438.34;;;17.87;50.96
29417;BME280;28421;51.030;4.006;2023-03-13T14:12:57;99414.47;;;17.95;51.12
29417;BME280;28421;51.030;4.006;2023-03-13T14:15:28;99403.56;;;17.68;50.58
29417;BME280;28421;51.030;4.006;2023-03-13T14:23:01;99434.66;;;17.99;51.39
29417;BME280;28421;51.030;4.006;2023-03-13T14:25:46;99408.81;;;17.52;51.17
29417;BME280;28421;51.030;4.006;2023-03-13T14:28:21;99419.66;;;17.52;50.31
29417;BME280;28421;51.030;4.006;2023-03-13T14:30:49;99383.25;;;17.53;51.00
29417;BME280;28421;51.030;4.006;2023-03-13T14:33:16;99385.84;;;17.65;48.81
29417;BME280;28421;51.030;4.006;2023-03-13T14:35:42;99366.63;;;17.72;49.19
29417;BME280;28421;51.030;4.006;2023-03-13T14:38:18;99420.19;;;17.93;49.59
29417;BME280;28421;51.030;4.006;2023-03-13T14:40:44;99377.16;;;17.63;49.41
29417;BME280;28421;51.030;4.006;2023-03-13T14:43:22;99348.63;;;17.00;48.90
29417;BME280;28421;51.030;4.006;2023-03-13T14:45:49;99366.38;;;17.07;49.27
29417;BME280;28421;51.030;4.006;2023-03-13T14:50:43;99368.09;;;17.13;49.11
29417;BME280;28421;51.030;4.006;2023-03-13T14:53:17;99369.03;;;17.02;49.11
29417;BME280;28421;51.030;4.006;2023-03-13T14:55:47;99338.28;;;16.97;49.30
29417;BME280;28421;51.030;4.006;2023-03-13T15:00:46;99376.75;;;17.10;49.73
29417;BME280;28421;51.030;4.006;2023-03-13T15:05:38;99322.41;;;16.88;50.47
29417;BME280;28421;51.030;4.006;2023-03-13T15:08:20;99327.75;;;16.83;50.38
29417;BME280;28421;51.030;4.006;2023-03-13T15:10:46;99319.88;;;16.82;50.71
29417;BME280;28421;51.030;4.006;2023-03-13T15:13:32;99291.84;;;16.76;50.43
29417;BME280;28421;51.030;4.006;2023-03-13T15:16:00;99354.97;;;17.05;51.03
29417;BME280;28421;51.030;4.006;2023-03-13T15:18:32;99316.84;;;17.00;51.42
29417;BME280;28421;51.030;4.006;2023-03-13T15:21:19;99294.69;;;16.86;51.10
29417;BME280;28421;51.030;4.006;2023-03-13T15:23:51;99294.09;;;17.01;50.47
29417;BME280;28421;51.030;4.006;2023-03-13T15:26:17;99293.88;;;16.86;50.41
29417;BME280;28421;51.030;4.006;2023-03-13T15:28:43;99314.34;;;16.94;50.39
29417;BME280;28421;51.030;4.006;2023-03-13T15:31:11;99287.34;;;16.87;50.04
29417;BME280;28421;51.030;4.006;2023-03-13T15:33:37;99284.16;;;16.90;50.06
29417;BME280;28421;51.030;4.006;2023-03-13T15:36:03;99279.59;;;16.74;50.37
29417;BME280;28421;51.030;4.006;2023-03-13T15:38:28;99251.38;;;16.58;49.24
29417;BME280;28421;51.030;4.006;2023-03-13T15:40:54;99267.25;;;16.66;49.19
29417;BME280;28421;51.030;4.006;2023-03-13T15:43:20;99289.91;;;16.94;49.50
29417;BME280;28421;51.030;4.006;2023-03-13T15:45:48;99257.88;;;16.74;49.25
29417;BME280;28421;51.030;4.006;2023-03-13T15:48:26;99284.75;;;16.92;49.43
29417;BME280;28421;51.030;4.006;2023-03-13T15:51:00;99216.88;;;16.53;50.01
29417;BME280;28421;51.030;4.006;2023-03-13T15:53:30;99274.81;;;16.81;49.77
29417;BME280;28421;51.030;4.006;2023-03-13T15:55:58;99213.53;;;16.68;50.17
29417;BME280;28421;51.030;4.006;2023-03-13T15:58:24;99239.19;;;16.77;49.98
29417;BME280;28421;51.030;4.006;2023-03-13T16:00:50;99219.16;;;16.61;49.55
29417;BME280;28421;51.030;4.006;2023-03-13T16:03:19;99252.53;;;16.62;48.96
29417;BME280;28421;51.030;4.006;2023-03-13T16:05:46;99194.88;;;16.33;49.75
29417;BME280;28421;51.030;4.006;2023-03-13T16:08:15;99195.28;;;16.41;49.99
29417;BME280;28421;51.030;4.006;2023-03-13T16:10:41;99210.63;;;16.53;49.66
29417;BME280;28421;51.030;4.006;2023-03-13T16:13:06;99214.75;;;16.55;49.01
29417;BME280;28421;51.030;4.006;2023-03-13T16:15:33;99205.75;;;16.33;49.53
29417;BME280;28421;51.030;4.006;2023-03-13T16:17:59;99240.31;;;16.59;49.95
29417;BME280;28421;51.030;4.006;2023-03-13T16:20:25;99189.41;;;16.28;50.03
29417;BME280;28421;51.030;4.006;2023-03-13T16:22:54;99248.66;;;16.58;49.51
29417;BME280;28421;51.030;4.006;2023-03-13T16:25:20;99191.84;;;16.29;49.45
29417;BME280;28421;51.030;4.006;2023-03-13T16:27:46;99213.78;;;16.45;49.54
29417;BME280;28421;51.030;4.006;2023-03-13T16:30:17;99206.72;;;16.44;49.64
29417;BME280;28421;51.030;4.006;2023-03-13T16:32:44;99203.25;;;16.48;49.86
29417;BME280;28421;51.030;4.006;2023-03-13T16:35:09;99199.94;;;16.46;49.87
29417;BME280;28421;51.030;4.006;2023-03-13T16:37:35;99197.66;;;16.38;49.72
29417;BME280;28421;51.030;4.006;2023-03-13T16:40:00;99196.75;;;16.49;50.55
29417;BME280;28421;51.030;4.006;2023-03-13T16:42:26;99177.16;;;16.25;50.76
29417;BME280;28421;51.030;4.006;2023-03-13T16:44:52;99183.38;;;16.43;50.10
29417;BME280;28421;51.030;4.006;2023-03-13T16:47:27;99193.47;;;16.47;50.61
29417;BME280;28421;51.030;4.006;2023-03-13T16:49:53;99168.50;;;16.28;50.96
29417;BME280;28421;51.030;4.006;2023-03-13T16:52:19;99170.59;;;16.21;51.72
29417;BME280;28421;51.030;4.006;2023-03-13T16:54:45;99172.34;;;16.10;51.11
29417;BME280;28421;51.030;4.006;2023-03-13T16:57:12;99178.59;;;16.11;51.44
29417;BME280;28421;51.030;4.006;2023-03-13T16:59:39;99205.41;;;16.29;52.17
29417;BME280;28421;51.030;4.006;2023-03-13T17:02:12;99162.81;;;16.08;51.86
29417;BME280;28421;51.030;4.006;2023-03-13T17:04:38;99181.28;;;16.11;51.72
29417;BME280;28421;51.030;4.006;2023-03-13T17:07:19;99175.06;;;16.10;52.03
29417;BME280;28421;51.030;4.006;2023-03-13T17:09:45;99190.63;;;16.20;52.72
29417;BME280;28421;51.030;4.006;2023-03-13T17:12:11;99192.41;;;16.09;52.38
29417;BME280;28421;51.030;4.006;2023-03-13T17:14:36;99190.59;;;15.98;52.85
29417;BME280;28421;51.030;4.006;2023-03-13T17:17:02;99200.63;;;15.98;52.60
29417;BME280;28421;51.030;4.006;2023-03-13T17:19:28;99170.00;;;15.80;52.76
29417;BME280;28421;51.030;4.006;2023-03-13T17:21:54;99152.69;;;15.64;53.05
29417;BME280;28421;51.030;4.006;2023-03-13T17:24:20;99151.91;;;15.52;53.66
29417;BME280;28421;51.030;4.006;2023-03-13T17:26:45;99169.00;;;15.70;53.15
29417;BME280;28421;51.030;4.006;2023-03-13T17:29:15;99152.88;;;15.46;53.07
29417;BME280;28421;51.030;4.006;2023-03-13T17:31:41;99157.25;;;15.47;53.23
29417;BME280;28421;51.030;4.006;2023-03-13T17:34:08;99132.94;;;15.19;53.50
29417;BME280;28421;51.030;4.006;2023-03-13T17:36:34;99148.84;;;15.32;53.65
29417;BME280;28421;51.030;4.006;2023-03-13T17:39:02;99191.94;;;15.50;53.36
29417;BME280;28421;51.030;4.006;2023-03-13T17:41:31;99166.31;;;15.24;53.45
29417;BME280;28421;51.030;4.006;2023-03-13T17:43:56;99160.22;;;15.17;53.21
29417;BME280;28421;51.030;4.006;2023-03-13T17:46:43;99183.56;;;15.35;53.57
29417;BME280;28421;51.030;4.006;2023-03-13T17:49:12;99142.66;;;15.03;53.33
29417;BME280;28421;51.030;4.006;2023-03-13T17:51:38;99132.31;;;15.00;53.42
29417;BME280;28421;51.030;4.006;2023-03-13T17:54:06;99147.25;;;15.02;52.87
29417;BME280;28421;51.030;4.006;2023-03-13T17:56:34;99121.06;;;14.91;53.26
29417;BME280;28421;51.030;4.006;2023-03-13T17:59:04;99124.00;;;14.89;53.61
29417;BME280;28421;51.030;4.006;2023-03-13T18:01:31;99132.75;;;14.80;53.01
29417;BME280;28421;51.030;4.006;2023-03-13T18:03:58;99112.25;;;14.55;53.23
29417;BME280;28421;51.030;4.006;2023-03-13T18:06:40;99161.66;;;14.91;53.15
29417;BME280;28421;51.030;4.006;2023-03-13T18:09:20;99139.41;;;14.60;53.78
29417;BME280;28421;51.030;4.006;2023-03-13T18:11:47;99135.75;;;14.43;54.52
29417;BME280;28421;51.030;4.006;2023-03-13T18:14:13;99180.78;;;14.73;55.41
29417;BME280;28421;51.030;4.006;2023-03-13T18:16:43;99179.53;;;14.52;57.64
29417;BME280;28421;51.030;4.006;2023-03-13T18:21:43;99130.09;;;14.04;59.12
29417;BME280;28421;51.030;4.006;2023-03-13T18:24:10;99149.94;;;14.10;59.65
29417;BME280;28421;51.030;4.006;2023-03-13T18:26:37;99131.16;;;13.91;60.16
29417;BME280;28421;51.030;4.006;2023-03-13T18:29:13;99136.34;;;13.81;60.77
29417;BME280;28421;51.030;4.006;2023-03-13T18:31:40;99148.31;;;13.85;60.56
29417;BME280;28421;51.030;4.006;2023-03-13T18:34:10;99160.97;;;13.97;60.39
29417;BME280;28421;51.030;4.006;2023-03-13T18:36:36;99145.72;;;13.90;60.42
29417;BME280;28421;51.030;4.006;2023-03-13T18:39:03;99177.19;;;14.08;60.66
29417;BME280;28421;51.030;4.006;2023-03-13T18:41:30;99152.88;;;13.97;60.75
29417;BME280;28421;51.030;4.006;2023-03-13T18:43:57;99149.34;;;13.96;60.63
29417;BME280;28421;51.030;4.006;2023-03-13T18:46:25;99115.19;;;13.66;60.68
29417;BME280;28421;51.030;4.006;2023-03-13T18:48:58;99148.53;;;13.84;61.13
29417;BME280;28421;51.030;4.006;2023-03-13T18:51:26;99159.44;;;13.89;60.93
29417;BME280;28421;51.030;4.006;2023-03-13T18:53:53;99097.69;;;13.46;61.26
29417;BME280;28421;51.030;4.006;2023-03-13T18:56:29;99122.94;;;13.63;61.56
29417;BME280;28421;51.030;4.006;2023-03-13T18:58:56;99105.69;;;13.52;61.64
29417;BME280;28421;51.030;4.006;2023-03-13T19:01:24;99117.88;;;13.55;61.14
29417;BME280;28421;51.030;4.006;2023-03-13T19:03:50;99106.88;;;13.56;61.04
29417;BME280;28421;51.030;4.006;2023-03-13T19:06:24;99087.47;;;13.59;60.86
29417;BME280;28421;51.030;4.006;2023-03-13T19:08:55;99097.69;;;13.69;61.35
29417;BME280;28421;51.030;4.006;2023-03-13T19:11:30;99073.38;;;13.46;61.20
29417;BME280;28421;51.030;4.006;2023-03-13T19:13:56;99104.75;;;13.70;61.25
29417;BME280;28421;51.030;4.006;2023-03-13T19:16:30;99107.44;;;13.82;60.83
29417;BME280;28421;51.030;4.006;2023-03-13T19:18:59;99090.53;;;13.75;61.01
29417;BME280;28421;51.030;4.006;2023-03-13T19:21:27;99108.84;;;13.73;61.19
29417;BME280;28421;51.030;4.006;2023-03-13T19:23:53;99107.91;;;13.79;60.71
29417;BME280;28421;51.030;4.006;2023-03-13T19:26:35;99082.56;;;13.56;61.68
29417;BME280;28421;51.030;4.006;2023-03-13T19:29:02;99110.59;;;13.79;61.78
29417;BME280;28421;51.030;4.006;2023-03-13T19:31:28;99068.34;;;13.49;61.56
29417;BME280;28421;51.030;4.006;2023-03-13T19:33:53;99101.31;;;13.63;62.16
29417;BME280;28421;51.030;4.006;2023-03-13T19:36:22;99076.66;;;13.59;61.86
29417;BME280;28421;51.030;4.006;2023-03-13T19:38:48;99059.78;;;13.40;62.18